createdAt,value
2022-10-11T00:01:41.391Z,18.45
2022-10-11T00:04:08.073Z,17.08
2022-10-11T00:06:34.696Z,23.17
2022-10-11T00:09:01.276Z,18.20
2022-10-11T00:11:27.795Z,25.52
2022-10-11T00:13:54.312Z,30.90
2022-10-11T00:16:20.864Z,26.77
2022-10-11T00:18:47.395Z,24.73
2022-10-11T00:21:15.191Z,18.20
2022-10-11T00:23:42.909Z,20.60
2022-10-11T00:26:11.538Z,24.55
2022-10-11T00:28:38.907Z,17.75
2022-10-11T00:31:10.833Z,18.17
2022-10-11T00:33:37.719Z,18.45
2022-10-11T00:36:04.708Z,16.58
2022-10-11T00:38:32.181Z,21.85
2022-10-11T00:40:59.660Z,21.10
2022-10-11T00:43:28.977Z,22.33
2022-10-11T00:45:55.413Z,24.15
2022-10-11T00:48:27.639Z,23.70
2022-10-11T00:50:58.283Z,20.17
2022-10-11T00:53:26.070Z,22.20
2022-10-11T00:56:04.501Z,26.10
2022-10-11T00:58:35.067Z,22.88
2022-10-11T01:01:02.260Z,21.20
2022-10-11T01:03:30.860Z,19.35
2022-10-11T01:05:57.459Z,19.48
2022-10-11T01:08:25.571Z,16.45
2022-10-11T01:10:52.153Z,15.10
2022-10-11T01:13:30.897Z,14.10
2022-10-11T01:16:23.907Z,15.95
2022-10-11T01:19:26.316Z,14.20
2022-10-11T01:21:57.598Z,19.55
2022-10-11T01:24:49.106Z,15.00
2022-10-11T01:27:38.349Z,18.25
2022-10-11T01:30:19.962Z,14.95
2022-10-11T01:33:05.109Z,14.70
2022-10-11T01:35:34.555Z,24.80
2022-10-11T01:38:34.964Z,11.60
2022-10-11T01:41:13.700Z,14.75
2022-10-11T01:43:42.530Z,16.52
2022-10-11T01:46:10.317Z,17.83
2022-10-11T01:48:57.880Z,19.50
2022-10-11T01:51:29.782Z,20.20
2022-10-11T01:54:05.362Z,16.25
2022-10-11T01:56:53.668Z,22.35
2022-10-11T01:59:47.704Z,24.52
2022-10-11T02:02:17.140Z,19.23
2022-10-11T02:04:50.492Z,25.52
2022-10-11T02:07:33.590Z,28.92
2022-10-11T02:10:32.405Z,15.50
2022-10-11T02:13:08.156Z,19.05
2022-10-11T02:15:39.131Z,16.80
2022-10-11T02:18:10.660Z,19.13
2022-10-11T02:20:39.634Z,18.20
2022-10-11T02:23:12.098Z,18.98
2022-10-11T02:25:38.995Z,18.40
2022-10-11T02:28:12.413Z,17.48
2022-10-11T02:30:41.755Z,19.63
2022-10-11T02:33:13.066Z,19.23
2022-10-11T02:35:44.343Z,18.38
2022-10-11T02:38:27.598Z,19.30
2022-10-11T02:41:01.881Z,18.83
2022-10-11T02:43:31.947Z,15.88
2022-10-11T02:46:03.520Z,18.02
2022-10-11T02:48:32.325Z,20.63
2022-10-11T02:50:59.277Z,16.75
2022-10-11T02:53:26.993Z,14.38
2022-10-11T02:55:54.851Z,16.50
2022-10-11T02:58:22.978Z,15.05
2022-10-11T03:00:50.094Z,13.00
2022-10-11T03:03:16.604Z,20.40
2022-10-11T03:05:44.072Z,17.77
2022-10-11T03:08:12.706Z,22.15
2022-10-11T03:10:41.408Z,21.58
2022-10-11T03:13:08.259Z,20.08
2022-10-11T03:15:35.184Z,14.98
2022-10-11T03:18:01.656Z,22.58
2022-10-11T03:20:28.178Z,19.63
2022-10-11T03:22:54.736Z,17.13
2022-10-11T03:25:21.278Z,14.93
2022-10-11T03:27:47.795Z,21.50
2022-10-11T03:30:18.395Z,17.90
2022-10-11T03:32:45.506Z,16.27
2022-10-11T03:35:12.075Z,16.52
2022-10-11T03:37:38.586Z,16.02
2022-10-11T03:40:06.489Z,18.92
2022-10-11T03:42:32.973Z,14.55
2022-10-11T03:45:01.702Z,19.10
2022-10-11T03:47:28.231Z,13.82
2022-10-11T03:49:54.724Z,16.85
2022-10-11T03:52:21.289Z,15.52
2022-10-11T03:54:48.064Z,15.40
2022-10-11T03:57:14.999Z,18.33
2022-10-11T03:59:41.592Z,14.00
2022-10-11T04:02:08.275Z,19.38
2022-10-11T04:04:35.098Z,13.10
2022-10-11T04:07:01.717Z,13.40
2022-10-11T04:09:28.279Z,15.93
2022-10-11T04:11:54.769Z,18.90
2022-10-11T04:14:21.332Z,15.05
2022-10-11T04:16:47.891Z,16.80
2022-10-11T04:19:14.471Z,14.18
2022-10-11T04:21:41.064Z,19.30
2022-10-11T04:24:07.758Z,21.90
2022-10-11T04:26:34.297Z,16.13
2022-10-11T04:29:00.833Z,14.77
2022-10-11T04:31:27.330Z,22.13
2022-10-11T04:33:53.893Z,19.98
2022-10-11T04:36:20.412Z,15.45
2022-10-11T04:38:46.894Z,19.20
2022-10-11T04:41:14.180Z,15.95
2022-10-11T04:43:40.962Z,17.60
2022-10-11T04:46:08.681Z,17.65
2022-10-11T04:48:36.310Z,18.33
2022-10-11T04:51:02.814Z,15.27
2022-10-11T04:53:29.465Z,16.05
2022-10-11T04:56:02.425Z,14.70
2022-10-11T04:58:30.988Z,16.02
2022-10-11T05:00:58.487Z,17.13
2022-10-11T05:03:25.976Z,15.27
2022-10-11T05:05:53.128Z,20.45
2022-10-11T05:08:20.581Z,18.00
2022-10-11T05:11:08.587Z,16.73
2022-10-11T05:13:36.166Z,14.00
2022-10-11T05:16:07.151Z,11.60
2022-10-11T05:18:37.248Z,18.95
2022-10-11T05:21:15.987Z,17.30
2022-10-11T05:23:42.882Z,18.00
2022-10-11T05:26:09.892Z,16.98
2022-10-11T05:28:36.592Z,15.13
2022-10-11T05:31:03.446Z,20.75
2022-10-11T05:33:30.085Z,16.70
2022-10-11T05:35:56.701Z,12.77
2022-10-11T05:38:23.754Z,12.93
2022-10-11T05:40:50.653Z,16.33
2022-10-11T05:43:17.181Z,18.27
2022-10-11T05:45:44.668Z,16.10
2022-10-11T05:48:11.575Z,17.15
2022-10-11T05:50:38.851Z,15.90
2022-10-11T05:53:06.253Z,16.15
2022-10-11T05:55:40.979Z,16.50
2022-10-11T05:58:08.819Z,15.68
2022-10-11T06:00:36.980Z,20.52
2022-10-11T06:03:05.061Z,16.05
2022-10-11T06:05:31.869Z,17.77
2022-10-11T06:07:58.892Z,18.33
2022-10-11T06:10:26.181Z,18.30
2022-10-11T06:12:52.966Z,13.57
2022-10-11T06:15:19.725Z,22.50
2022-10-11T06:17:47.069Z,17.80
2022-10-11T06:20:13.683Z,18.90
2022-10-11T06:22:40.315Z,20.65
2022-10-11T06:25:07.584Z,14.27
2022-10-11T06:27:34.215Z,12.90
2022-10-11T06:30:00.932Z,20.50
2022-10-11T06:32:27.547Z,16.25
2022-10-11T06:34:54.120Z,13.90
2022-10-11T06:37:20.648Z,14.85
2022-10-11T06:39:47.157Z,18.90
2022-10-11T06:42:13.768Z,15.30
2022-10-11T06:44:40.323Z,31.98
2022-10-11T06:47:08.241Z,16.65
2022-10-11T06:49:34.917Z,18.27
2022-10-11T06:52:01.606Z,17.67
2022-10-11T06:54:28.195Z,16.77
2022-10-11T06:56:54.682Z,13.65
2022-10-11T06:59:21.339Z,18.15
2022-10-11T07:01:47.857Z,16.88
2022-10-11T07:04:14.359Z,20.88
2022-10-11T07:06:41.619Z,18.15
2022-10-11T07:09:08.962Z,18.58
2022-10-11T07:11:35.755Z,16.00
2022-10-11T07:14:07.594Z,21.75
2022-10-11T07:16:36.279Z,14.85
2022-10-11T07:19:04.987Z,18.23
2022-10-11T07:21:33.347Z,21.73
2022-10-11T07:24:00.623Z,20.33
2022-10-11T07:26:28.312Z,17.67
2022-10-11T07:28:55.304Z,19.05
2022-10-11T07:31:25.694Z,22.88
2022-10-11T07:33:52.739Z,18.02
2022-10-11T07:36:20.107Z,17.92
2022-10-11T07:38:47.515Z,20.60
2022-10-11T07:41:14.609Z,19.10
2022-10-11T07:43:43.259Z,17.40
2022-10-11T07:46:10.967Z,16.50
2022-10-11T07:48:38.077Z,16.05
2022-10-11T07:51:07.703Z,16.55
2022-10-11T07:54:07.766Z,19.00
2022-10-11T07:56:34.854Z,19.83
2022-10-11T07:59:04.460Z,17.33
2022-10-11T08:01:31.779Z,23.80
2022-10-11T08:03:58.890Z,24.48
2022-10-11T08:06:30.209Z,19.58
2022-10-11T08:08:58.431Z,21.33
2022-10-11T08:11:27.799Z,17.85
2022-10-11T08:13:54.914Z,22.08
2022-10-11T08:16:21.980Z,20.63
2022-10-11T08:18:48.788Z,14.98
2022-10-11T08:21:17.392Z,22.90
2022-10-11T08:23:44.412Z,18.98
2022-10-11T08:26:11.184Z,20.35
2022-10-11T08:28:38.007Z,19.10
2022-10-11T08:31:04.948Z,18.75
2022-10-11T08:33:31.862Z,23.20
2022-10-11T08:35:58.493Z,27.67
2022-10-11T08:38:24.994Z,26.20
2022-10-11T08:40:53.827Z,26.38
2022-10-11T08:43:41.139Z,22.00
2022-10-11T08:48:38.435Z,15.68
2022-10-11T08:51:15.428Z,23.42
2022-10-11T08:53:57.953Z,28.20
2022-10-11T08:56:26.359Z,16.85
2022-10-11T08:59:03.213Z,16.60
2022-10-11T09:01:31.568Z,20.73
2022-10-11T09:04:00.129Z,22.05
2022-10-11T09:07:02.600Z,26.52
2022-10-11T09:10:00.647Z,16.13
2022-10-11T09:12:30.971Z,18.17
2022-10-11T09:15:20.444Z,16.35
2022-10-11T09:17:56.051Z,27.23
2022-10-11T09:20:34.510Z,23.30
2022-10-11T09:23:52.115Z,21.60
2022-10-11T09:26:35.280Z,17.27
2022-10-11T09:29:18.762Z,18.35
2022-10-11T09:31:53.831Z,26.73
2022-10-11T09:34:24.196Z,18.75
2022-10-11T09:36:57.872Z,23.58
2022-10-11T09:39:36.571Z,16.25
2022-10-11T09:42:11.579Z,16.20
2022-10-11T09:44:39.991Z,25.27
2022-10-11T09:47:13.354Z,20.13
2022-10-11T09:49:49.250Z,24.98
2022-10-11T09:52:18.396Z,21.60
2022-10-11T09:54:49.766Z,16.27
2022-10-11T09:57:23.382Z,23.92
2022-10-11T10:00:00.784Z,19.85
2022-10-11T10:02:30.172Z,18.65
2022-10-11T10:05:14.214Z,19.92
2022-10-11T10:08:01.660Z,18.05
2022-10-11T10:10:59.137Z,17.50
2022-10-11T10:13:51.456Z,16.77
2022-10-11T10:16:30.807Z,17.40
2022-10-11T10:19:03.573Z,19.60
2022-10-11T10:21:34.016Z,17.55
2022-10-11T10:24:05.719Z,18.40
2022-10-11T10:26:33.405Z,20.02
2022-10-11T10:29:08.959Z,16.60
2022-10-11T10:32:13.018Z,12.40
2022-10-11T10:34:37.809Z,18.05
2022-10-11T10:37:44.122Z,16.02
2022-10-11T10:40:21.735Z,16.67
2022-10-11T10:42:49.809Z,18.00
2022-10-11T10:45:21.398Z,12.82
2022-10-11T10:48:15.362Z,14.38
2022-10-11T10:50:54.694Z,14.38
2022-10-11T10:53:40.516Z,14.23
2022-10-11T10:56:12.315Z,15.93
2022-10-11T10:58:44.712Z,16.15
2022-10-11T11:01:25.044Z,12.18
2022-10-11T11:04:23.891Z,16.75
2022-10-11T11:06:57.667Z,27.98
2022-10-11T11:09:53.758Z,20.75
2022-10-11T11:12:29.091Z,15.25
2022-10-11T11:15:19.764Z,14.73
2022-10-11T11:18:11.714Z,16.88
2022-10-11T11:21:03.742Z,13.60
2022-10-11T11:23:49.392Z,15.77
2022-10-11T11:26:44.554Z,18.23
2022-10-11T11:29:26.062Z,17.58
2022-10-11T11:32:15.312Z,16.45
2022-10-11T11:34:47.020Z,12.77
2022-10-11T11:37:26.514Z,18.95
2022-10-11T11:39:59.657Z,11.75
2022-10-11T11:42:49.624Z,10.85
2022-10-11T11:45:22.602Z,14.60
2022-10-11T11:47:56.810Z,14.75
2022-10-11T11:50:25.159Z,11.45
2022-10-11T11:52:55.829Z,12.02
2022-10-11T11:55:33.314Z,11.15
2022-10-11T11:58:38.607Z,16.00
2022-10-11T12:01:17.493Z,11.52
2022-10-11T12:03:51.406Z,18.85
2022-10-11T12:06:23.009Z,10.05
2022-10-11T12:09:32.306Z,13.18
2022-10-11T12:12:01.276Z,11.38
2022-10-11T12:14:37.663Z,13.35
2022-10-11T12:17:18.664Z,14.65
2022-10-11T12:20:41.559Z,14.38
2022-10-11T12:23:30.134Z,7.82
2022-10-11T12:26:27.449Z,7.07
2022-10-11T12:29:04.451Z,18.58
2022-10-11T12:31:36.445Z,12.35
2022-10-11T12:34:09.036Z,9.68
2022-10-11T12:36:40.435Z,11.95
2022-10-11T12:39:22.714Z,9.40
2022-10-11T12:41:53.697Z,10.60
2022-10-11T12:44:28.619Z,11.05
2022-10-11T12:46:55.052Z,9.90
2022-10-11T12:49:33.620Z,9.10
2022-10-11T12:52:24.809Z,14.00
2022-10-11T12:55:04.488Z,12.68
2022-10-11T12:57:49.817Z,14.68
2022-10-11T13:00:20.651Z,15.23
2022-10-11T13:02:48.927Z,13.35
2022-10-11T13:05:18.516Z,15.98
2022-10-11T13:07:46.297Z,10.50
2022-10-11T13:10:36.033Z,15.77
2022-10-11T13:13:04.522Z,14.18
2022-10-11T13:15:31.506Z,9.60
2022-10-11T13:18:02.435Z,8.32
2022-10-11T13:20:36.283Z,6.93
2022-10-11T13:23:35.952Z,16.20
2022-10-11T13:26:02.568Z,10.25
2022-10-11T13:28:35.562Z,11.02
2022-10-11T13:31:04.406Z,12.32
2022-10-11T13:33:35.370Z,9.18
2022-10-11T13:36:04.573Z,11.30
2022-10-11T13:38:36.870Z,9.80
2022-10-11T13:41:07.155Z,14.85
2022-10-11T13:43:34.157Z,15.00
2022-10-11T13:46:04.882Z,17.90
2022-10-11T13:48:32.338Z,13.73
2022-10-11T13:51:16.894Z,14.85
2022-10-11T13:54:08.462Z,9.02
2022-10-11T13:56:51.384Z,11.00
2022-10-11T13:59:22.096Z,9.40
2022-10-11T14:01:50.427Z,8.13
2022-10-11T14:04:17.498Z,10.27
2022-10-11T14:06:53.495Z,9.85
2022-10-11T14:09:34.181Z,11.90
2022-10-11T14:12:31.146Z,7.63
2022-10-11T14:14:59.589Z,7.55
2022-10-11T14:17:42.522Z,13.00
2022-10-11T14:20:30.876Z,7.47
2022-10-11T14:23:00.096Z,8.38
2022-10-11T14:25:26.864Z,9.73
2022-10-11T14:27:54.605Z,13.57
2022-10-11T14:30:26.209Z,8.55
2022-10-11T14:32:56.068Z,11.07
2022-10-11T14:35:28.161Z,8.10
2022-10-11T14:37:54.855Z,12.45
2022-10-11T14:40:24.310Z,11.10
2022-10-11T14:42:51.085Z,8.25
2022-10-11T14:45:17.881Z,11.48
2022-10-11T14:47:45.158Z,10.40
2022-10-11T14:50:45.732Z,14.40
2022-10-11T14:53:12.503Z,8.88
2022-10-11T14:55:40.615Z,11.40
2022-10-11T14:58:08.968Z,10.80
2022-10-11T15:00:36.961Z,11.43
2022-10-11T15:03:05.223Z,11.25
2022-10-11T15:05:34.194Z,11.90
2022-10-11T15:08:02.285Z,10.80
2022-10-11T15:10:42.047Z,11.50
2022-10-11T15:13:08.930Z,11.40
2022-10-11T15:15:37.782Z,11.23
2022-10-11T15:18:07.032Z,12.50
2022-10-11T15:20:39.207Z,15.18
2022-10-11T15:23:07.785Z,12.20
2022-10-11T15:25:34.639Z,10.50
2022-10-11T15:28:01.632Z,11.73
2022-10-11T15:30:41.606Z,12.00
2022-10-11T15:33:09.068Z,9.43
2022-10-11T15:35:35.696Z,10.85
2022-10-11T15:38:02.812Z,13.10
2022-10-11T15:40:35.530Z,15.65
2022-10-11T15:43:02.461Z,9.43
2022-10-11T15:45:29.838Z,10.70
2022-10-11T15:47:56.889Z,9.75
2022-10-11T15:50:39.272Z,12.10
2022-10-11T15:53:05.919Z,9.07
2022-10-11T15:55:34.875Z,10.02
2022-10-11T15:58:01.842Z,11.80
2022-10-11T16:00:29.625Z,10.60
2022-10-11T16:02:57.411Z,6.90
2022-10-11T16:05:25.979Z,11.82
2022-10-11T16:07:53.385Z,11.85
2022-10-11T16:10:21.181Z,9.90
2022-10-11T16:12:47.710Z,12.43
2022-10-11T16:15:15.339Z,9.80
2022-10-11T16:17:41.934Z,11.82
2022-10-11T16:20:09.266Z,11.63
2022-10-11T16:22:36.624Z,13.45
2022-10-11T16:25:04.482Z,18.67
2022-10-11T16:27:31.466Z,11.85
2022-10-11T16:29:58.325Z,9.98
2022-10-11T16:32:25.399Z,8.98
2022-10-11T16:34:51.898Z,10.85
2022-10-11T16:37:18.940Z,15.30
2022-10-11T16:39:46.361Z,10.95
2022-10-11T16:42:12.903Z,6.93
2022-10-11T16:44:39.490Z,9.63
2022-10-11T16:47:06.618Z,11.60
2022-10-11T16:49:33.374Z,14.20
2022-10-11T16:52:02.259Z,10.88
2022-10-11T16:54:30.484Z,11.93
2022-10-11T16:56:58.414Z,12.00
2022-10-11T16:59:25.710Z,15.35
2022-10-11T17:01:52.166Z,9.93
2022-10-11T17:04:18.911Z,9.45
2022-10-11T17:06:45.441Z,10.02
2022-10-11T17:09:12.605Z,11.65
2022-10-11T17:11:40.626Z,13.82
2022-10-11T17:14:07.689Z,15.20
2022-10-11T17:16:35.031Z,9.65
2022-10-11T17:19:02.590Z,12.00
2022-10-11T17:21:29.250Z,10.73
2022-10-11T17:23:56.005Z,13.75
2022-10-11T17:26:27.858Z,13.30
2022-10-11T17:28:56.443Z,16.65
2022-10-11T17:31:24.083Z,16.05
2022-10-11T17:33:51.302Z,11.98
2022-10-11T17:36:38.119Z,9.70
2022-10-11T17:39:11.159Z,13.45
2022-10-11T17:41:37.685Z,14.68
2022-10-11T17:44:04.945Z,10.57
2022-10-11T17:46:34.385Z,15.07
2022-10-11T17:49:06.728Z,11.00
2022-10-11T17:51:37.076Z,11.88
2022-10-11T17:54:04.133Z,12.73
2022-10-11T17:56:36.607Z,12.50
2022-10-11T17:59:04.343Z,14.85
2022-10-11T18:01:30.996Z,11.32
2022-10-11T18:03:59.903Z,11.52
2022-10-11T18:06:28.902Z,13.55
2022-10-11T18:08:57.255Z,15.00
2022-10-11T18:11:23.885Z,8.98
2022-10-11T18:13:52.238Z,16.10
2022-10-11T18:16:21.578Z,9.63
2022-10-11T18:18:48.283Z,15.65
2022-10-11T18:21:16.097Z,12.13
2022-10-11T18:23:42.636Z,13.77
2022-10-11T18:26:15.078Z,14.07
2022-10-11T18:28:42.451Z,12.23
2022-10-11T18:31:15.468Z,12.30
2022-10-11T18:33:43.336Z,15.02
2022-10-11T18:36:13.264Z,11.35
2022-10-11T18:38:43.949Z,13.35
2022-10-11T18:41:11.548Z,10.75
2022-10-11T18:43:38.157Z,18.17
2022-10-11T18:46:04.658Z,15.73
2022-10-11T18:48:32.650Z,17.48
2022-10-11T18:51:05.407Z,11.57
2022-10-11T18:53:33.799Z,12.40
2022-10-11T18:56:01.723Z,21.05
2022-10-11T18:58:32.732Z,14.88
2022-10-11T19:01:15.909Z,14.48
2022-10-11T19:03:43.483Z,12.50
2022-10-11T19:06:19.443Z,20.77
2022-10-11T19:08:53.611Z,15.00
2022-10-11T19:11:22.212Z,20.92
2022-10-11T19:13:55.687Z,16.40
2022-10-11T19:16:22.687Z,19.27
2022-10-11T19:18:50.127Z,18.67
2022-10-11T19:21:16.737Z,15.48
2022-10-11T19:23:45.403Z,18.83
2022-10-11T19:26:28.836Z,18.80
2022-10-11T19:29:01.268Z,20.17
2022-10-11T19:31:28.916Z,20.40
2022-10-11T19:33:57.195Z,18.50
2022-10-11T19:36:23.883Z,21.20
2022-10-11T19:38:51.009Z,22.02
2022-10-11T19:41:19.633Z,26.08
2022-10-11T19:43:46.546Z,17.55
2022-10-11T19:46:20.332Z,23.13
2022-10-11T19:48:54.456Z,21.95
2022-10-11T19:51:23.311Z,26.40
2022-10-11T19:53:55.898Z,19.42
2022-10-11T19:56:22.571Z,17.00
2022-10-11T19:58:49.468Z,22.52
2022-10-11T20:01:26.968Z,19.45
2022-10-11T20:03:56.575Z,20.73
2022-10-11T20:06:23.975Z,22.05
2022-10-11T20:09:10.310Z,22.75
2022-10-11T20:11:37.451Z,15.75
2022-10-11T20:14:04.137Z,17.83
2022-10-11T20:16:30.675Z,18.25
2022-10-11T20:18:59.240Z,21.13
2022-10-11T20:21:28.366Z,18.98
2022-10-11T20:24:01.248Z,14.77
2022-10-11T20:26:28.825Z,18.88
2022-10-11T20:28:56.639Z,17.20
2022-10-11T20:31:32.167Z,18.33
2022-10-11T20:34:01.935Z,20.15
2022-10-11T20:36:30.137Z,17.98
2022-10-11T20:38:57.992Z,19.50
2022-10-11T20:41:31.553Z,22.33
2022-10-11T20:43:59.739Z,17.58
2022-10-11T20:46:29.819Z,13.48
2022-10-11T20:49:01.953Z,18.15
2022-10-11T20:51:30.418Z,13.48
2022-10-11T20:53:58.421Z,16.20
2022-10-11T20:56:25.011Z,19.52
2022-10-11T20:58:53.660Z,15.20
2022-10-11T21:01:22.762Z,19.50
2022-10-11T21:03:50.342Z,16.17
2022-10-11T21:06:16.968Z,18.05
2022-10-11T21:08:43.751Z,23.55
2022-10-11T21:11:11.115Z,17.88
2022-10-11T21:13:37.986Z,20.33
2022-10-11T21:16:07.971Z,13.77
2022-10-11T21:18:34.575Z,17.45
2022-10-11T21:21:07.280Z,17.58
2022-10-11T21:23:34.534Z,30.02
2022-10-11T21:26:06.857Z,29.23
2022-10-11T21:28:33.733Z,21.75
2022-10-11T21:31:08.600Z,23.85
2022-10-11T21:33:35.594Z,21.17
2022-10-11T21:36:14.324Z,22.90
2022-10-11T21:38:41.231Z,19.83
2022-10-11T21:41:11.489Z,16.38
2022-10-11T21:43:38.959Z,18.30
2022-10-11T21:46:10.646Z,17.95
2022-10-11T21:48:37.244Z,20.15
2022-10-11T21:51:04.275Z,19.15
2022-10-11T21:53:30.923Z,18.65
2022-10-11T21:55:58.497Z,20.63
2022-10-11T21:58:25.231Z,24.10
2022-10-11T22:00:52.305Z,25.70
2022-10-11T22:03:19.026Z,18.67
2022-10-11T22:05:46.979Z,22.23
2022-10-11T22:08:14.551Z,24.63
2022-10-11T22:10:51.692Z,17.50
2022-10-11T22:13:18.205Z,22.83
2022-10-11T22:15:44.733Z,16.55
2022-10-11T22:18:11.495Z,30.80
2022-10-11T22:20:37.974Z,22.67
2022-10-11T22:23:04.598Z,19.60
2022-10-11T22:25:31.104Z,19.30
2022-10-11T22:27:57.721Z,26.38
2022-10-11T22:30:24.207Z,18.55
2022-10-11T22:32:51.480Z,18.42
2022-10-11T22:35:18.793Z,17.52
2022-10-11T22:37:45.625Z,16.55
2022-10-11T22:40:12.535Z,16.95
2022-10-11T22:42:39.044Z,18.05
2022-10-11T22:45:05.877Z,16.50
2022-10-11T22:47:32.418Z,17.50
2022-10-11T22:49:58.886Z,16.23
2022-10-11T22:52:25.433Z,12.75
2022-10-11T22:54:51.974Z,15.77
2022-10-11T22:57:18.467Z,20.55
2022-10-11T22:59:45.090Z,19.27
2022-10-11T23:02:11.601Z,20.17
2022-10-11T23:04:38.080Z,15.90
2022-10-11T23:07:05.248Z,22.77
2022-10-11T23:09:31.915Z,19.65
2022-10-11T23:11:59.245Z,19.92
2022-10-11T23:14:25.785Z,16.50
2022-10-11T23:16:53.139Z,22.77
2022-10-11T23:19:19.794Z,21.88
2022-10-11T23:21:46.818Z,20.85
2022-10-11T23:24:13.429Z,18.88
2022-10-11T23:26:39.905Z,22.40
2022-10-11T23:29:06.468Z,19.88
2022-10-11T23:31:32.984Z,21.63
2022-10-11T23:33:59.444Z,20.55
2022-10-11T23:36:26.212Z,24.85
2022-10-11T23:38:55.153Z,18.48
2022-10-11T23:41:23.245Z,19.52
2022-10-11T23:43:49.777Z,17.20
2022-10-11T23:46:16.735Z,17.23
2022-10-11T23:48:43.271Z,18.20
2022-10-11T23:51:10.607Z,18.27
2022-10-11T23:53:37.318Z,22.35
2022-10-11T23:56:05.244Z,15.40
2022-10-11T23:58:31.745Z,21.50
